Main page
METAR-TAF:

METAR-TAF

Airports :

Mariehamn Airport

Mariehamn, Finland

latitude: 60-07N, longitude: 019-54E, elevation: 6 m

Current weather observation

The report was made 34 minutes ago, at 10:50 UTC
Wind 12 kt from the South
Temperature 3°C
Humidity 65%
Pressure 1011 hPa
Visibility 10 km or more
no clouds below 1500 m and no cumulonimbus

METAR: EFMA 201050Z AUTO 18012KT CAVOK 03/M03 Q1011

Time: 13:24 (11:24 UTC)

Forecast

The report was made 1 hour and 1 minutes ago, at 10:23 UTC
Forecast valid from 20 at 10 UTC to 20 at 18 UTC
Wind 12 kt from the South
Visibility 10 km or more
no clouds below 1500 m and no cumulonimbus
Temporary
from 20 at 15 UTC to 20 at 18 UTC
Wind 15 kt from the South with gusts up to 25 kt

TAF: EFMA 201023Z 2010/2018 18012KT CAVOK TEMPO 2015/2018 18015G25KT

Weather observations and forecasts of more than 4000 airports (METAR and TAF reports).

The available stations are represented by yellow and red dots on the map.

Hover mouse over dot to see the name of the station.

Then click to see weather observations and forecasts.

To change the map : click on the green buttons with a black cross to zoom in, on the green button with a dash to zoom out, or on the green arrows for adjacent maps.


METAR-TAF: